Bookmark and Share
Track history (hours):
 

Sid Moller

More information available from US FCC via Universal Licensing System and Coast Guard Vessel Documentation Center.

Last reported at 2014-Apr-19 18:33 UTC. Time now 2014-Apr-20 13:32 UTC.
Position N 29°47' W 095°06'.

; draft 2.7 m.

Type: Towing. MMSI: 367504980.

NotesDate/timePositionNaut miles runAvg speedWind from/ knotsBaromVisibWave heightAir tempDewpointWater temp
2014-Apr-19 18:33N 29°47' W 095°06'0 0.0
2014-Apr-19 17:23N 29°47' W 095°06'0 0.0
2014-Apr-19 16:30N 29°47' W 095°06'1 0.2
2014-Apr-19 13:10N 29°46' W 095°06'1 1.2
2014-Apr-19 12:33N 29°46' W 095°05'2 0.4
2014-Apr-19 08:30N 29°45' W 095°06'0 0.0
2014-Apr-19 07:33N 29°45' W 095°06'0 0.0
2014-Apr-19 06:33N 29°45' W 095°06'0 0.0
2014-Apr-19 05:33N 29°45' W 095°06'0 0.0
2014-Apr-19 04:33N 29°45' W 095°06'0 0.0
2014-Apr-19 00:26N 29°45' W 095°06'0 0.0
2014-Apr-18 23:32N 29°45' W 095°06'0 0.0
2014-Apr-18 22:32N 29°45' W 095°06'0 0.0
2014-Apr-18 20:07N 29°45' W 095°06'0 0.0
2014-Apr-18 19:14N 29°45' W 095°06'0 0.0
2014-Apr-18 18:30N 29°45' W 095°06'0 0.1
2014-Apr-18 17:28N 29°45' W 095°06'3 3.6
2014-Apr-18 16:33N 29°47' W 095°04'2 2.3
2014-Apr-18 15:31N 29°46' W 095°06'0 0.0
2014-Apr-18 14:32N 29°46' W 095°06'0 0.0
2014-Apr-18 13:30N 29°46' W 095°06'0 0.0
2014-Apr-18 12:33N 29°46' W 095°06'0 0.0
2014-Apr-18 03:10N 29°46' W 095°06'0 0.0
2014-Apr-18 00:18N 29°46' W 095°06'0 0.0
2014-Apr-17 23:29N 29°46' W 095°06'0 0.0
2014-Apr-17 22:33N 29°46' W 095°06'0 0.3
2014-Apr-17 21:31N 29°46' W 095°06'2 2.4
2014-Apr-17 20:33N 29°47' W 095°04'4 3.7
2014-Apr-17 19:33N 29°44' W 095°02'6 5.8
2014-Apr-17 18:33N 29°39' W 094°58'6 6.4
2014-Apr-17 17:33N 29°33' W 094°55'7 6.8
2014-Apr-17 16:33N 29°28' W 094°51'13 4.0
2014-Apr-17 13:27N 29°17' W 094°58'  

Dump ship's entire track history

sailing weather and tide predictions

Sid Moller — WDF9421 — position and weather